Time;durP1;ratioP1;P1;durP2;ratioP2;P2;SDS_P1;SDS_P2;PMS_P1;PMS_P2;Temp;Humidity;BMP_temperature;BMP_pressure;BME280_temperature;BME280_humidity;BME280_pressure;Samples;Min_cycle;Max_cycle;Signal;HPM_P1;HPM_P2
2023/06/22 00:00:45;;;;;;;9.40;6.55;;;;;;;21.71;67.04;101532.88;4998439;28;20026;-77
2023/06/22 00:03:13;;;;;;;7.60;5.93;;;;;;;21.62;67.19;101532.28;4998907;28;20041;-74
2023/06/22 00:05:39;;;;;;;11.88;6.63;;;;;;;21.56;67.59;101535.78;5019434;28;20038;-75
2023/06/22 00:08:05;;;;;;;7.15;5.20;;;;;;;21.52;67.93;101545.16;5010406;28;20037;-73
2023/06/22 00:10:31;;;;;;;9.27;6.25;;;;;;;21.46;68.13;101541.53;5007959;28;20034;-80
2023/06/22 00:12:56;;;;;;;9.43;5.63;;;;;;;21.50;68.30;101547.19;5001546;28;20026;-73
2023/06/22 00:15:21;;;;;;;11.70;6.30;;;;;;;21.52;68.31;101543.31;5007829;28;20405;-74
2023/06/22 00:17:47;;;;;;;8.98;5.90;;;;;;;21.47;68.41;101540.50;5003863;28;20041;-79
2023/06/22 00:20:14;;;;;;;11.63;6.90;;;;;;;21.50;68.87;101534.00;5020754;28;20100;-75
2023/06/22 00:22:40;;;;;;;8.27;5.90;;;;;;;21.44;69.32;101532.19;5002345;28;21073;-75
2023/06/22 00:25:08;;;;;;;7.53;5.68;;;;;;;21.43;69.56;101530.56;5003061;28;20098;-75
2023/06/22 00:27:35;;;;;;;8.55;6.15;;;;;;;21.36;70.05;101534.03;5008368;28;20044;-78
2023/06/22 00:30:00;;;;;;;10.52;6.40;;;;;;;21.35;70.07;101532.41;5019459;28;20053;-76
2023/06/22 00:32:28;;;;;;;9.23;6.40;;;;;;;21.35;70.31;101531.59;4989331;28;20574;-77
2023/06/22 00:34:53;;;;;;;12.23;7.50;;;;;;;21.34;70.38;101529.97;4987661;28;20037;-75
2023/06/22 00:37:18;;;;;;;8.60;6.05;;;;;;;21.29;70.79;101525.34;5004604;28;20034;-74
2023/06/22 00:39:44;;;;;;;10.40;7.45;;;;;;;21.24;71.08;101524.34;5006675;28;20057;-76
2023/06/22 00:42:10;;;;;;;10.07;5.95;;;;;;;21.16;71.56;101520.13;5001115;28;20050;-74
2023/06/22 00:44:36;;;;;;;14.93;6.65;;;;;;;21.15;71.81;101529.03;5005950;28;20091;-73
2023/06/22 00:47:03;;;;;;;7.50;5.50;;;;;;;21.13;71.96;101526.59;5016965;28;20033;-76
2023/06/22 00:49:28;;;;;;;10.38;6.35;;;;;;;21.12;72.21;101527.63;5003343;28;20050;-76
2023/06/22 00:51:55;;;;;;;9.68;6.35;;;;;;;21.13;72.77;101525.81;4998738;28;20405;-78
2023/06/22 00:54:24;;;;;;;10.02;5.70;;;;;;;21.12;72.90;101525.00;5003877;28;20737;-77
2023/06/22 00:56:55;;;;;;;12.43;6.78;;;;;;;21.11;73.00;101522.56;4988782;28;20030;-74
2023/06/22 00:59:22;;;;;;;10.15;5.72;;;;;;;21.09;73.30;101529.88;5004405;28;20057;-74
2023/06/22 01:01:47;;;;;;;10.65;6.50;;;;;;;21.08;73.32;101521.16;5006890;28;20121;-75
2023/06/22 01:04:13;;;;;;;12.45;5.50;;;;;;;21.11;73.42;101526.00;5005364;28;20129;-76
2023/06/22 01:07:01;;;;;;;9.45;5.47;;;;;;;21.15;73.00;101516.69;5009367;28;20029;-74
2023/06/22 01:09:35;;;;;;;9.70;6.03;;;;;;;21.15;73.51;101518.50;4987515;28;20093;-74
2023/06/22 01:12:04;;;;;;;11.88;5.30;;;;;;;21.16;73.38;101507.75;5003562;28;20037;-74
2023/06/22 01:14:37;;;;;;;8.90;5.22;;;;;;;21.16;73.45;101507.75;5006457;28;20057;-75
2023/06/22 01:17:07;;;;;;;7.85;5.65;;;;;;;21.16;73.80;101504.31;5007285;28;20408;-75
2023/06/22 01:19:55;;;;;;;9.30;5.65;;;;;;;21.14;74.55;101504.50;5010506;28;20048;-74
2023/06/22 01:22:23;;;;;;;8.57;5.60;;;;;;;21.13;74.54;101500.22;5012509;28;20068;-73
2023/06/22 01:25:04;;;;;;;7.93;5.47;;;;;;;21.12;74.89;101492.56;5008624;28;20049;-74
2023/06/22 01:27:47;;;;;;;11.90;5.45;;;;;;;21.09;74.94;101492.97;5024294;28;20041;-74
2023/06/22 01:30:16;;;;;;;11.53;5.57;;;;;;;21.10;74.95;101492.75;4991392;28;20042;-75
2023/06/22 01:32:42;;;;;;;10.82;5.65;;;;;;;21.10;74.98;101492.75;5008786;28;20030;-77
2023/06/22 01:35:10;;;;;;;10.13;5.95;;;;;;;21.10;74.94;101490.13;5004228;28;20138;-74
2023/06/22 01:37:37;;;;;;;9.45;5.90;;;;;;;21.08;75.09;101492.16;5007511;28;20064;-76
2023/06/22 01:40:05;;;;;;;9.90;6.15;;;;;;;21.08;74.97;101492.16;5005054;28;20056;-79
2023/06/22 01:42:31;;;;;;;11.80;5.80;;;;;;;21.05;75.45;101489.13;5005094;28;20117;-73
2023/06/22 01:45:00;;;;;;;7.43;5.30;;;;;;;21.02;75.70;101490.38;5007053;28;20573;-74
2023/06/22 01:47:27;;;;;;;11.55;7.57;;;;;;;21.00;76.25;101493.22;5006119;28;20033;-74
2023/06/22 01:49:53;;;;;;;9.02;6.15;;;;;;;20.96;76.63;101492.00;5007709;28;20037;-74
2023/06/22 01:52:21;;;;;;;11.38;6.38;;;;;;;20.91;76.72;101486.56;5005118;28;20034;-74
2023/06/22 01:54:46;;;;;;;11.60;6.03;;;;;;;20.88;76.96;101488.78;5005707;28;20074;-76
2023/06/22 01:57:12;;;;;;;14.18;6.43;;;;;;;20.86;77.13;101486.34;5005783;28;20450;-73
2023/06/22 01:59:51;;;;;;;10.93;5.97;;;;;;;20.87;77.22;101489.78;5004789;28;20054;-74
2023/06/22 02:02:20;;;;;;;10.48;6.38;;;;;;;20.87;77.20;101480.09;4989919;28;20048;-74
2023/06/22 02:05:21;;;;;;;13.15;6.90;;;;;;;20.87;77.39;101479.25;5002159;28;20092;-74
2023/06/22 02:08:11;;;;;;;12.85;6.63;;;;;;;20.83;77.28;101481.50;5002141;28;20500;-74
2023/06/22 02:10:41;;;;;;;14.85;6.53;;;;;;;20.78;77.84;101484.75;5008801;28;20053;-76
2023/06/22 02:13:08;;;;;;;11.93;6.30;;;;;;;20.71;78.29;101478.69;4984115;28;20063;-75
2023/06/22 02:15:34;;;;;;;14.35;6.40;;;;;;;20.72;78.57;101474.22;5006477;28;20025;-74
2023/06/22 02:18:00;;;;;;;10.55;6.47;;;;;;;20.74;78.53;101480.13;4991225;28;20037;-74
2023/06/22 02:20:25;;;;;;;13.02;7.47;;;;;;;20.75;78.85;101484.38;5010387;28;20049;-74
2023/06/22 02:22:51;;;;;;;16.20;8.32;;;;;;;20.70;78.67;101477.09;5011682;28;20044;-77
2023/06/22 02:25:16;;;;;;;11.30;7.30;;;;;;;20.61;79.52;101473.06;5014097;28;20054;-74
2023/06/22 02:27:45;;;;;;;12.45;6.90;;;;;;;20.59;79.55;101472.44;4994650;28;20040;-75
2023/06/22 02:30:11;;;;;;;11.27;7.40;;;;;;;20.57;79.80;101470.00;5010056;28;20046;-79
2023/06/22 02:32:41;;;;;;;10.90;7.60;;;;;;;20.55;79.72;101463.28;5015501;28;20026;-75
2023/06/22 02:35:08;;;;;;;16.55;7.70;;;;;;;20.54;79.99;101461.69;5026259;28;20042;-74
2023/06/22 02:37:35;;;;;;;18.77;8.77;;;;;;;20.49;79.99;101464.94;5012353;28;20034;-77
2023/06/22 02:40:02;;;;;;;10.02;6.85;;;;;;;20.51;80.04;101464.72;5010992;28;20091;-75
2023/06/22 02:42:28;;;;;;;16.45;9.70;;;;;;;20.53;79.78;101466.16;5015677;28;20025;-75
2023/06/22 02:44:54;;;;;;;14.88;9.57;;;;;;;20.48;80.10;101465.16;4996775;28;20045;-75
2023/06/22 02:47:19;;;;;;;19.95;8.77;;;;;;;20.38;80.66;101460.28;4991326;28;20034;-74
2023/06/22 02:49:45;;;;;;;13.20;8.82;;;;;;;20.37;80.35;101462.13;5011468;28;20033;-74
2023/06/22 02:52:11;;;;;;;11.40;8.27;;;;;;;20.34;80.95;101462.53;5025915;28;20033;-74
2023/06/22 02:54:37;;;;;;;18.17;9.57;;;;;;;20.30;80.80;101465.78;5008663;28;20046;-74
2023/06/22 02:57:03;;;;;;;13.93;9.18;;;;;;;20.26;81.33;101462.75;4997048;28;20531;-75
2023/06/22 02:59:29;;;;;;;14.50;8.80;;;;;;;20.24;81.35;101451.59;5016533;28;20056;-74
2023/06/22 03:02:02;;;;;;;14.65;8.02;;;;;;;20.23;81.58;101457.91;5012305;28;20025;-74
2023/06/22 03:04:31;;;;;;;11.43;7.85;;;;;;;20.21;81.88;101452.84;5008303;28;20127;-76
2023/06/22 03:07:00;;;;;;;14.95;8.95;;;;;;;20.20;82.18;101451.19;5013437;28;20480;-75
2023/06/22 03:09:27;;;;;;;11.70;7.85;;;;;;;20.19;82.15;101446.13;5015498;28;21995;-74
2023/06/22 03:11:54;;;;;;;16.98;9.48;;;;;;;20.21;82.30;101449.38;5022937;28;20095;-75
2023/06/22 03:14:24;;;;;;;12.48;8.40;;;;;;;20.18;82.25;101445.34;5009768;28;20070;-77
2023/06/22 03:16:51;;;;;;;14.98;9.15;;;;;;;20.20;82.40;101435.41;5008679;28;20113;-75
2023/06/22 03:19:19;;;;;;;17.40;11.18;;;;;;;20.20;82.59;101439.88;4994494;28;20116;-74
2023/06/22 03:21:44;;;;;;;13.07;8.55;;;;;;;20.14;82.89;101432.78;5011561;28;20521;-76
2023/06/22 03:24:10;;;;;;;14.65;9.88;;;;;;;20.13;82.79;101431.16;4993841;28;20053;-80
2023/06/22 03:26:37;;;;;;;21.80;9.77;;;;;;;20.07;83.08;101424.09;5007475;28;20033;-74
2023/06/22 03:29:03;;;;;;;18.58;9.93;;;;;;;20.07;83.33;101411.72;4994957;28;20033;-74
2023/06/22 03:31:29;;;;;;;19.85;10.68;;;;;;;20.04;83.47;101406.84;4999926;28;20030;-75
2023/06/22 03:33:55;;;;;;;15.70;9.15;;;;;;;20.03;83.63;101410.53;5028118;28;20532;-78
2023/06/22 03:36:22;;;;;;;17.75;10.80;;;;;;;20.01;83.88;101410.72;5013397;28;20026;-75
2023/06/22 03:38:50;;;;;;;16.25;10.10;;;;;;;19.99;84.17;101410.13;5013538;28;20117;-74
2023/06/22 03:41:15;;;;;;;18.02;11.13;;;;;;;20.00;84.44;101406.47;5014409;28;20561;-78
2023/06/22 03:43:41;;;;;;;15.82;9.82;;;;;;;20.01;84.38;101402.03;4992262;28;20038;-74
2023/06/22 03:46:07;;;;;;;17.42;10.68;;;;;;;19.96;84.43;101401.81;5008382;28;20034;-73
2023/06/22 03:48:32;;;;;;;21.63;11.10;;;;;;;19.94;84.70;101398.59;5010414;28;20672;-74
2023/06/22 03:51:03;;;;;;;17.65;10.68;;;;;;;19.94;84.79;101399.38;4995007;28;20480;-75
2023/06/22 03:53:28;;;;;;;22.23;12.82;;;;;;;19.97;84.75;101404.25;5001394;28;20074;-74
2023/06/22 03:55:54;;;;;;;16.92;9.98;;;;;;;19.99;84.56;101404.06;5012594;28;20022;-77
2023/06/22 03:58:20;;;;;;;19.65;11.10;;;;;;;20.00;84.89;101411.75;5022662;28;20489;-74
2023/06/22 04:00:47;;;;;;;21.73;9.80;;;;;;;19.97;85.14;101408.72;5013326;28;20026;-76
2023/06/22 04:03:14;;;;;;;18.85;10.88;;;;;;;20.00;85.08;101408.28;5008391;28;20535;-75
2023/06/22 04:05:40;;;;;;;18.80;9.85;;;;;;;20.05;85.03;101402.44;5014861;28;20042;-74
2023/06/22 04:08:14;;;;;;;16.17;9.15;;;;;;;20.10;84.81;101411.31;5012056;28;20113;-74
2023/06/22 04:10:39;;;;;;;16.90;9.90;;;;;;;20.12;85.01;101416.41;5008943;28;20027;-75
2023/06/22 04:13:04;;;;;;;20.77;10.77;;;;;;;20.11;85.01;101414.75;5005010;28;20032;-74
2023/06/22 04:15:30;;;;;;;15.82;11.02;;;;;;;20.07;85.20;101411.72;5014852;28;20573;-75
2023/06/22 04:17:56;;;;;;;18.02;10.45;;;;;;;20.06;84.99;101418.03;5012038;28;20038;-75
2023/06/22 04:20:22;;;;;;;22.88;12.30;;;;;;;20.02;85.43;101414.16;5010760;28;20125;-74
2023/06/22 04:22:47;;;;;;;17.98;10.05;;;;;;;19.99;85.61;101417.22;5011770;28;20441;-75
2023/06/22 04:25:14;;;;;;;14.00;9.38;;;;;;;20.00;85.84;101413.56;4991427;28;20038;-76
2023/06/22 04:27:40;;;;;;;22.05;10.93;;;;;;;20.07;85.92;101405.66;5011113;28;20112;-75
2023/06/22 04:30:07;;;;;;;20.05;12.55;;;;;;;20.05;85.72;101410.31;4995577;28;20038;-74
2023/06/22 04:32:33;;;;;;;19.67;12.27;;;;;;;20.02;85.84;101412.34;5016245;28;20033;-75
2023/06/22 04:35:00;;;;;;;17.75;10.63;;;;;;;20.06;85.78;101401.41;5016691;28;20048;-74
2023/06/22 04:37:26;;;;;;;21.90;11.98;;;;;;;20.00;86.37;101397.75;5007300;28;20034;-74
2023/06/22 04:39:51;;;;;;;23.75;12.73;;;;;;;20.02;85.94;101399.19;5008644;28;20064;-80
2023/06/22 04:42:17;;;;;;;20.95;11.95;;;;;;;20.01;86.05;101402.81;4993883;28;20033;-75
2023/06/22 04:44:42;;;;;;;23.52;10.60;;;;;;;20.02;86.14;101403.63;5017444;28;20052;-74
2023/06/22 04:47:08;;;;;;;20.27;11.73;;;;;;;20.08;85.57;101409.91;5010461;28;20038;-74
2023/06/22 04:49:37;;;;;;;21.60;12.48;;;;;;;20.05;85.56;101405.84;5021166;28;20038;-79
2023/06/22 04:52:07;;;;;;;18.42;11.73;;;;;;;20.06;85.74;101404.84;4994378;28;20030;-77
2023/06/22 04:54:33;;;;;;;24.33;11.90;;;;;;;20.08;85.70;101402.84;5007268;28;20038;-74
2023/06/22 04:57:04;;;;;;;16.30;10.00;;;;;;;20.11;85.86;101401.59;5016126;28;20026;-75
2023/06/22 04:59:30;;;;;;;20.52;11.63;;;;;;;20.17;86.71;101401.59;5011492;28;20138;-74
2023/06/22 05:02:02;;;;;;;21.00;11.55;;;;;;;20.15;87.30;101397.53;5006464;28;20729;-76
2023/06/22 05:04:31;;;;;;;21.13;12.13;;;;;;;20.13;88.32;101389.84;5008099;28;20133;-75
2023/06/22 05:06:57;;;;;;;19.58;11.52;;;;;;;20.10;87.75;101390.28;5010065;28;20033;-77
2023/06/22 05:09:24;;;;;;;17.08;10.55;;;;;;;20.13;88.11;101395.09;5008520;28;20046;-75
2023/06/22 05:11:50;;;;;;;16.70;10.18;;;;;;;20.15;88.46;101394.91;5012219;28;20025;-76
2023/06/22 05:14:16;;;;;;;19.02;12.07;;;;;;;20.27;89.77;101395.91;5008016;28;20516;-74
2023/06/22 05:16:42;;;;;;;18.50;11.50;;;;;;;20.23;89.38;101402.59;4989063;28;20030;-76
2023/06/22 05:19:08;;;;;;;17.15;9.45;;;;;;;20.23;89.36;101400.78;5010448;28;20115;-74
2023/06/22 05:21:34;;;;;;;20.98;11.75;;;;;;;20.26;90.15;101407.44;5014365;28;20029;-74
2023/06/22 05:24:02;;;;;;;21.52;9.90;;;;;;;20.26;89.55;101402.19;5010525;28;20042;-75
2023/06/22 05:26:28;;;;;;;16.13;9.57;;;;;;;20.31;89.74;101409.47;5007281;28;20500;-79
2023/06/22 05:28:54;;;;;;;19.00;11.75;;;;;;;20.31;89.67;101409.47;4994672;28;20165;-75
2023/06/22 05:31:20;;;;;;;16.48;11.32;;;;;;;20.33;89.42;101405.63;5007818;28;20117;-74
2023/06/22 05:33:47;;;;;;;17.20;11.07;;;;;;;20.36;89.40;101418.38;5006003;28;20429;-78
2023/06/22 05:36:13;;;;;;;20.80;12.18;;;;;;;20.39;88.61;101420.59;5008961;28;20389;-79
2023/06/22 05:38:39;;;;;;;23.00;12.05;;;;;;;20.35;88.40;101416.75;5007557;28;20057;-74
2023/06/22 05:41:06;;;;;;;18.88;11.75;;;;;;;20.32;88.16;101426.88;5007512;28;20449;-76
2023/06/22 05:43:31;;;;;;;15.65;9.40;;;;;;;20.33;88.53;101424.03;4991296;28;20045;-78
2023/06/22 05:45:57;;;;;;;14.85;10.13;;;;;;;20.37;88.39;101419.19;5005932;28;20036;-76
2023/06/22 05:48:23;;;;;;;21.60;12.45;;;;;;;20.38;88.53;101412.88;4990554;28;20037;-75
2023/06/22 05:50:48;;;;;;;21.20;12.52;;;;;;;20.41;88.43;101413.28;5011603;28;20029;-75
2023/06/22 05:53:14;;;;;;;18.20;12.02;;;;;;;20.40;88.84;101410.88;5011169;28;20058;-75
2023/06/22 05:55:39;;;;;;;21.83;11.45;;;;;;;20.42;89.21;101412.28;5007238;28;20029;-76
2023/06/22 05:58:05;;;;;;;22.15;12.95;;;;;;;20.46;88.91;101417.16;4992010;28;20484;-74
2023/06/22 06:00:30;;;;;;;17.05;10.75;;;;;;;20.47;88.83;101410.84;4994081;28;20041;-75
2023/06/22 06:02:56;;;;;;;22.90;11.88;;;;;;;20.47;88.78;101416.13;5008313;28;20060;-76
2023/06/22 06:05:23;;;;;;;18.65;10.48;;;;;;;20.50;88.21;101413.06;5010955;28;20047;-79
2023/06/22 06:07:49;;;;;;;24.42;13.18;;;;;;;20.49;87.41;101420.16;5012098;28;20038;-75
2023/06/22 06:10:14;;;;;;;23.20;13.10;;;;;;;20.52;87.38;101422.38;5008354;28;20065;-78
2023/06/22 06:12:40;;;;;;;17.48;10.65;;;;;;;20.54;87.90;101414.28;5006834;28;20030;-76
2023/06/22 06:15:06;;;;;;;20.65;12.38;;;;;;;20.59;87.64;101417.09;4990693;28;20045;-75
2023/06/22 06:17:31;;;;;;;22.38;13.18;;;;;;;20.63;87.38;101412.25;5004955;28;20029;-76
2023/06/22 06:19:59;;;;;;;29.17;17.70;;;;;;;20.67;86.97;101416.91;5016334;28;20511;-75
2023/06/22 06:22:24;;;;;;;25.75;14.55;;;;;;;20.75;85.96;101413.22;5010234;28;20033;-75
2023/06/22 06:24:50;;;;;;;24.23;15.00;;;;;;;20.68;86.17;101417.69;4993975;28;20046;-75
2023/06/22 06:27:18;;;;;;;21.00;12.70;;;;;;;20.69;86.40;101419.31;5009680;28;20038;-75
2023/06/22 06:29:45;;;;;;;23.38;13.10;;;;;;;20.73;86.48;101417.88;5009371;28;20049;-76
2023/06/22 06:32:11;;;;;;;21.77;12.43;;;;;;;20.72;86.89;101408.34;4989013;28;20523;-78
2023/06/22 06:34:36;;;;;;;26.88;15.23;;;;;;;20.72;87.02;101409.19;5010780;28;20050;-76
2023/06/22 06:37:03;;;;;;;25.30;13.13;;;;;;;20.73;86.68;101410.78;4991689;28;20037;-75
2023/06/22 06:39:28;;;;;;;19.55;12.23;;;;;;;20.74;87.12;101408.97;5004710;28;20046;-77
2023/06/22 06:41:54;;;;;;;20.60;12.93;;;;;;;20.75;87.27;101400.03;4994799;28;20041;-74
2023/06/22 06:44:19;;;;;;;20.58;11.52;;;;;;;20.80;87.42;101406.31;5005490;28;20050;-76
2023/06/22 06:46:45;;;;;;;20.27;12.95;;;;;;;20.90;86.81;101405.84;4992411;28;20034;-80
2023/06/22 06:49:10;;;;;;;18.30;9.23;;;;;;;20.89;86.46;101398.97;5006117;28;20037;-76
2023/06/22 06:51:35;;;;;;;21.65;12.75;;;;;;;20.86;85.70;101394.13;5006262;28;20062;-79
2023/06/22 06:54:03;;;;;;;24.05;12.95;;;;;;;20.84;85.77;101400.63;4991245;28;20526;-79
2023/06/22 06:56:29;;;;;;;20.45;11.25;;;;;;;20.84;85.23;101409.34;5010734;28;20036;-76
2023/06/22 06:58:55;;;;;;;25.80;12.23;;;;;;;20.82;85.20;101410.56;5010265;28;20493;-75
2023/06/22 07:01:20;;;;;;;19.73;11.70;;;;;;;20.79;85.35;101417.03;4994463;28;20033;-75
2023/06/22 07:03:46;;;;;;;21.83;11.02;;;;;;;20.80;85.14;101414.22;5010088;28;20041;-75
2023/06/22 07:06:13;;;;;;;17.27;9.95;;;;;;;20.80;84.38;101408.94;5015322;28;20040;-77
2023/06/22 07:08:39;;;;;;;19.25;10.38;;;;;;;20.85;85.00;101412.78;5008965;28;20049;-77
2023/06/22 07:11:05;;;;;;;16.10;10.35;;;;;;;20.86;85.25;101407.28;5005467;28;20032;-76
2023/06/22 07:13:30;;;;;;;15.02;8.85;;;;;;;20.91;86.07;101406.69;5012921;28;21218;-76
2023/06/22 07:15:56;;;;;;;17.00;8.85;;;;;;;20.93;87.17;101397.53;5009711;28;20122;-76
2023/06/22 07:18:21;;;;;;;15.73;9.07;;;;;;;20.94;87.76;101390.44;4991054;28;20513;-76
2023/06/22 07:20:51;;;;;;;17.38;10.05;;;;;;;20.94;88.27;101396.50;5009979;28;20041;-75
2023/06/22 07:23:17;;;;;;;14.13;8.75;;;;;;;20.87;89.25;101393.09;5011633;28;20030;-76
2023/06/22 07:25:42;;;;;;;20.85;12.38;;;;;;;20.85;88.95;101387.25;5008725;28;20041;-77
2023/06/22 07:28:09;;;;;;;15.27;9.65;;;;;;;20.80;90.39;101376.50;5021733;28;20433;-76
2023/06/22 07:30:34;;;;;;;16.70;9.07;;;;;;;20.74;91.62;101378.16;4996299;28;20489;-77
2023/06/22 07:33:03;;;;;;;19.52;11.38;;;;;;;20.72;92.92;101377.56;4995345;28;20049;-77
2023/06/22 07:35:32;;;;;;;23.02;13.55;;;;;;;20.65;91.44;101373.34;5008124;28;20037;-81
2023/06/22 07:37:58;;;;;;;18.50;12.02;;;;;;;20.47;92.18;101364.25;4990386;28;20026;-79
2023/06/22 07:40:23;;;;;;;30.83;11.95;;;;;;;20.44;94.23;101359.41;5006572;28;20400;-77
2023/06/22 07:42:51;;;;;;;26.75;12.85;;;;;;;20.39;94.94;101359.22;5005154;28;20034;-78
2023/06/22 07:45:17;;;;;;;20.77;12.82;;;;;;;20.46;96.06;101352.09;5009428;28;20412;-85
2023/06/22 07:47:42;;;;;;;22.58;11.93;;;;;;;20.50;94.71;101344.59;5007899;28;20038;-82
2023/06/22 07:50:08;;;;;;;18.85;12.70;;;;;;;20.75;93.83;101340.25;5009753;28;20036;-79
2023/06/22 07:52:34;;;;;;;16.30;10.10;;;;;;;21.67;92.06;101333.78;5007110;28;20408;-76
2023/06/22 07:54:59;;;;;;;22.98;13.88;;;;;;;22.25;87.91;101336.06;5001747;28;20046;-78
2023/06/22 07:57:33;;;;;;;23.58;12.82;;;;;;;22.09;86.19;101321.56;5003133;28;20030;-77
2023/06/22 08:00:06;;;;;;;23.77;12.55;;;;;;;22.53;86.20;101309.09;4986045;28;20058;-78
2023/06/22 08:02:38;;;;;;;21.92;13.50;;;;;;;22.95;82.78;101305.66;5004624;28;20041;-78
2023/06/22 08:05:04;;;;;;;19.63;13.07;;;;;;;23.19;82.22;101303.91;5002278;28;20415;-83
2023/06/22 08:07:32;;;;;;;18.25;11.85;;;;;;;23.40;82.31;101291.97;4990532;28;20036;-79
2023/06/22 08:09:58;;;;;;;20.08;11.95;;;;;;;23.63;83.59;101296.44;4990857;28;20042;-80
2023/06/22 08:12:23;;;;;;;19.23;13.38;;;;;;;23.63;79.33;101296.44;5008412;28;20397;-76
2023/06/22 08:14:49;;;;;;;19.63;13.18;;;;;;;23.21;78.99;101296.56;4988234;28;20057;-77
2023/06/22 08:17:14;;;;;;;20.00;11.98;;;;;;;23.02;82.67;101290.50;4991711;28;20029;-76
2023/06/22 08:19:40;;;;;;;13.98;10.40;;;;;;;22.77;82.74;101301.25;5007576;28;20495;-76
2023/06/22 08:22:05;;;;;;;16.45;12.10;;;;;;;22.47;83.34;101303.88;4994413;28;20056;-77
2023/06/22 08:24:31;;;;;;;19.92;12.82;;;;;;;22.47;83.66;101301.25;4991730;28;20054;-74
2023/06/22 08:26:56;;;;;;;17.75;10.77;;;;;;;22.28;85.03;101297.81;5008292;28;20034;-79
2023/06/22 08:29:22;;;;;;;17.92;13.60;;;;;;;22.30;85.34;101296.59;4994555;28;20068;-75
2023/06/22 08:31:47;;;;;;;22.27;14.48;;;;;;;22.20;84.09;101298.09;5006318;28;20041;-77
2023/06/22 08:34:13;;;;;;;16.13;10.82;;;;;;;22.18;84.85;101282.47;5016125;28;20057;-79
2023/06/22 08:36:44;;;;;;;16.52;10.40;;;;;;;22.30;86.60;101290.47;4995832;28;20029;-77
2023/06/22 08:39:10;;;;;;;20.77;15.45;;;;;;;22.21;86.37;101283.84;5010498;28;20073;-78
2023/06/22 08:41:35;;;;;;;15.90;10.65;;;;;;;22.30;86.32;101288.66;5009214;28;20096;-78
2023/06/22 08:44:11;;;;;;;16.35;11.80;;;;;;;22.47;87.39;101285.38;4999692;28;20042;-78
2023/06/22 08:46:38;;;;;;;13.52;10.05;;;;;;;22.61;86.74;101278.91;5007942;28;20062;-79
2023/06/22 08:49:04;;;;;;;20.25;12.80;;;;;;;23.01;84.82;101270.38;4988951;28;20501;-75
2023/06/22 08:51:29;;;;;;;20.73;12.88;;;;;;;23.18;83.62;101269.75;5006136;28;20091;-74
2023/06/22 08:53:55;;;;;;;18.63;13.45;;;;;;;23.80;81.40;101266.66;5006227;28;20431;-74
2023/06/22 08:56:20;;;;;;;19.17;12.27;;;;;;;23.87;79.82;101260.19;5009235;28;20030;-85
2023/06/22 08:58:46;;;;;;;19.42;12.20;;;;;;;24.11;79.29;101257.50;4994389;28;20045;-75
2023/06/22 09:01:11;;;;;;;17.13;13.00;;;;;;;24.08;81.54;101261.41;5014362;28;20038;-83
2023/06/22 09:03:37;;;;;;;16.33;11.85;;;;;;;24.49;79.07;101264.03;5005362;28;20042;-75
2023/06/22 09:06:03;;;;;;;14.73;9.80;;;;;;;24.57;77.83;101266.31;5013308;28;20037;-75
2023/06/22 09:08:28;;;;;;;17.25;10.88;;;;;;;25.11;77.87;101268.53;5014367;28;20088;-74
2023/06/22 09:10:54;;;;;;;16.08;10.80;;;;;;;25.74;73.18;101260.41;5006017;28;20027;-78
2023/06/22 09:13:19;;;;;;;12.90;10.10;;;;;;;25.72;72.08;101259.88;5008672;28;20038;-75
2023/06/22 09:15:45;;;;;;;10.50;8.35;;;;;;;25.91;71.72;101255.03;5013184;28;20469;-74
2023/06/22 09:18:11;;;;;;;20.10;10.57;;;;;;;26.00;70.42;101248.28;5014505;28;20037;-74
2023/06/22 09:20:37;;;;;;;14.13;10.25;;;;;;;25.97;72.61;101249.56;5021171;28;20100;-75
2023/06/22 09:23:02;;;;;;;17.25;10.98;;;;;;;25.78;73.39;101257.00;5010848;28;20367;-77
2023/06/22 09:25:28;;;;;;;13.57;9.85;;;;;;;25.58;72.45;101243.47;4992712;28;20543;-75
2023/06/22 09:27:53;;;;;;;12.55;8.63;;;;;;;25.77;71.44;101246.66;4998054;28;20026;-74
2023/06/22 09:30:19;;;;;;;15.88;9.07;;;;;;;25.99;71.58;101236.03;5011235;28;20050;-77
2023/06/22 09:32:44;;;;;;;10.73;7.47;;;;;;;25.96;70.12;101232.03;5009940;28;20038;-79
2023/06/22 09:35:12;;;;;;;14.30;8.38;;;;;;;25.88;69.37;101227.13;4998613;28;20061;-74
2023/06/22 09:37:38;;;;;;;9.98;8.23;;;;;;;26.23;69.12;101221.41;5008417;28;20030;-74
2023/06/22 09:40:11;;;;;;;12.23;8.05;;;;;;;26.35;67.59;101218.63;5011183;28;20041;-76
2023/06/22 09:42:37;;;;;;;12.30;7.65;;;;;;;26.53;65.73;101206.00;5007950;28;20041;-73
2023/06/22 09:45:03;;;;;;;15.00;9.07;;;;;;;26.80;65.99;101211.31;4988433;28;20497;-76
2023/06/22 09:47:29;;;;;;;10.02;7.30;;;;;;;27.11;65.94;101188.38;5008972;28;20029;-78
2023/06/22 09:49:55;;;;;;;12.25;7.93;;;;;;;27.31;64.13;101194.88;4999140;28;20164;-74
2023/06/22 09:52:21;;;;;;;11.48;7.72;;;;;;;27.27;63.96;101196.47;5010540;28;20042;-79
2023/06/22 09:54:47;;;;;;;10.07;7.30;;;;;;;27.29;64.78;101195.13;5008999;28;20050;-78
2023/06/22 09:57:13;;;;;;;13.40;6.60;;;;;;;27.00;64.16;101195.47;5009637;28;20073;-75
2023/06/22 09:59:39;;;;;;;8.95;6.57;;;;;;;27.10;63.59;101194.75;4991395;28;20038;-75
2023/06/22 10:02:06;;;;;;;11.80;6.65;;;;;;;27.09;64.83;101197.69;5011837;28;21906;-75
2023/06/22 10:04:31;;;;;;;11.35;8.10;;;;;;;26.88;63.80;101197.53;5021777;28;20072;-75
2023/06/22 10:06:57;;;;;;;11.20;7.00;;;;;;;26.59;63.38;101208.47;5014300;28;20030;-74
2023/06/22 10:09:22;;;;;;;12.73;7.78;;;;;;;26.54;65.57;101203.09;5014245;28;20088;-74
2023/06/22 10:11:48;;;;;;;11.13;7.10;;;;;;;26.41;64.53;101208.84;5004888;28;20034;-75
2023/06/22 10:14:13;;;;;;;8.20;5.93;;;;;;;26.40;66.36;101212.53;5008351;28;20121;-77
2023/06/22 10:16:40;;;;;;;12.98;7.55;;;;;;;26.38;64.17;101212.78;5013211;28;20165;-74
2023/06/22 10:19:06;;;;;;;16.50;8.20;;;;;;;26.27;63.97;101218.28;5014582;28;20041;-75
2023/06/22 10:21:32;;;;;;;13.23;8.18;;;;;;;26.21;64.65;101220.88;5012685;28;20038;-76
2023/06/22 10:23:59;;;;;;;15.63;7.78;;;;;;;26.01;65.50;101229.44;5015737;28;20041;-76
2023/06/22 10:26:24;;;;;;;11.73;7.53;;;;;;;25.90;67.02;101232.19;5011397;28;20033;-80
2023/06/22 10:28:50;;;;;;;12.98;7.78;;;;;;;25.83;67.93;101235.84;4999085;28;20046;-75
2023/06/22 10:31:16;;;;;;;13.45;7.68;;;;;;;25.83;68.47;101245.66;5007347;28;20053;-75
2023/06/22 10:33:43;;;;;;;22.65;11.40;;;;;;;25.73;66.51;101259.63;5012452;28;20076;-77
2023/06/22 10:36:10;;;;;;;21.55;10.35;;;;;;;25.82;67.02;101262.63;4997500;28;20033;-75
2023/06/22 10:38:36;;;;;;;26.08;11.95;;;;;;;25.70;66.54;101278.69;5016215;28;20404;-76
2023/06/22 10:41:01;;;;;;;23.15;12.48;;;;;;;25.54;66.96;101269.72;5030676;28;20033;-75
2023/06/22 10:43:26;;;;;;;18.45;10.77;;;;;;;25.51;68.37;101274.72;5014105;28;20607;-76
2023/06/22 10:45:52;;;;;;;18.77;10.20;;;;;;;25.57;68.96;101265.78;5016246;28;20021;-76
2023/06/22 10:48:17;;;;;;;23.10;11.77;;;;;;;25.51;70.06;101264.09;5010209;28;20033;-80
2023/06/22 10:50:43;;;;;;;21.23;11.88;;;;;;;25.47;70.16;101271.75;5010474;28;20041;-77
2023/06/22 10:53:08;;;;;;;18.17;10.02;;;;;;;25.40;72.06;101273.75;4992852;28;20040;-77
2023/06/22 10:55:34;;;;;;;20.73;10.32;;;;;;;25.37;73.22;101275.06;5014262;28;20040;-77
2023/06/22 10:57:59;;;;;;;18.83;10.27;;;;;;;25.34;72.93;101277.41;4999310;28;20037;-78
2023/06/22 11:00:25;;;;;;;19.73;10.32;;;;;;;25.34;74.79;101280.06;4996747;28;20054;-77
2023/06/22 11:02:50;;;;;;;21.15;11.55;;;;;;;25.21;75.79;101278.50;4999021;28;20038;-76
2023/06/22 11:05:15;;;;;;;14.35;9.85;;;;;;;25.14;76.86;101280.50;4992673;28;20520;-76
2023/06/22 11:07:44;;;;;;;21.60;11.40;;;;;;;25.12;77.62;101287.91;5013860;28;20688;-76
2023/06/22 11:10:10;;;;;;;14.70;10.45;;;;;;;25.04;78.93;101297.88;5004556;28;20041;-77
2023/06/22 11:12:36;;;;;;;17.05;10.40;;;;;;;25.02;80.70;101293.84;5011398;28;20033;-77